Informes METAR cercanos

 

LEBZ - Talavera Ab/Bada, Spain
Distancia desde la estación: ONO 43km
Actualización: 05/12/2022 08:00
Lluvia, Intervalos nubosos(4/8)
Lluvia, Intervalos nubosos(4/8)
 Viento del E
Viento: E 17 km/h
Temperatura: 11°C
Rocío: 11°C
Humedad: 100%
Barómetro: 1008 hPa
Resumen: Lluvia
Nubes: Intervalos nubosos , 4/8
Visibilidad: 7 km
Detalle nubosidad: Poco nuboso , 1/8 762 m
Intervalos nubosos , 4/8 1219 m
2022/12/05 07:00 LEBZ 050700Z 10009KT 7000 RA FEW025 SCT040 11/11 Q1008